Time;durP1;ratioP1;P1;durP2;ratioP2;P2;SDS_P1;SDS_P2;PMS_P1;PMS_P2;Temp;Humidity;BMP_temperature;BMP_pressure;BME280_temperature;BME280_humidity;BME280_pressure;Samples;Min_cycle;Max_cycle;Signal;HPM_P1;HPM_P2
2021/04/06 00:03:18;;;;;;;3.80;1.93;;;;;;;-0.26;79.92;97549.64;238698;1196;23308;-71
2021/04/06 00:08:23;;;;;;;2.83;1.63;;;;;;;-0.29;79.43;97552.77;238475;1200;26082;-70
2021/04/06 00:13:29;;;;;;;3.13;1.83;;;;;;;-0.31;80.00;97554.84;238702;1200;23104;-70
2021/04/06 00:18:34;;;;;;;4.07;2.37;;;;;;;-0.34;79.55;97550.08;238880;1196;23109;-70
2021/04/06 00:23:38;;;;;;;4.90;1.80;;;;;;;-0.31;79.45;97546.16;238450;1200;26169;-71
2021/04/06 00:28:43;;;;;;;3.20;1.70;;;;;;;-0.36;78.99;97549.55;238810;1199;23102;-70
2021/04/06 00:33:51;;;;;;;4.47;1.50;;;;;;;-0.39;78.89;97561.36;238891;1196;23163;-70
2021/04/06 00:38:55;;;;;;;2.37;1.27;;;;;;;-0.42;78.56;97558.41;238709;1199;23102;-69
2021/04/06 00:43:59;;;;;;;4.17;1.90;;;;;;;-0.43;78.93;97564.73;238877;1198;23105;-70
2021/04/06 00:49:02;;;;;;;4.50;1.93;;;;;;;-0.49;78.21;97561.25;238756;1196;23127;-70
2021/04/06 00:54:12;;;;;;;2.70;1.45;;;;;;;-0.53;78.18;97578.57;238749;1200;23109;-70
2021/04/06 00:59:22;;;;;;;3.70;1.63;;;;;;;-0.51;78.33;97573.84;238706;1200;27359;-69
2021/04/06 01:04:32;;;;;;;5.63;2.03;;;;;;;-0.49;78.03;97581.48;238792;1200;23199;-70
2021/04/06 01:09:35;;;;;;;3.73;1.67;;;;;;;-0.52;78.72;97588.84;238814;1196;23078;-70
2021/04/06 01:14:50;;;;;;;2.37;1.57;;;;;;;-0.55;78.16;97605.09;238754;1196;23109;-70
2021/04/06 01:19:53;;;;;;;4.70;1.70;;;;;;;-0.54;78.15;97598.80;238614;1200;23247;-71
2021/04/06 01:24:56;;;;;;;3.90;1.30;;;;;;;-0.52;78.55;97588.84;238802;1196;23101;-70
2021/04/06 01:29:58;;;;;;;3.85;1.55;;;;;;;-0.48;78.11;97575.98;239013;1199;23132;-70
2021/04/06 01:35:05;;;;;;;3.50;1.55;;;;;;;-0.47;78.06;97580.20;238552;1200;23263;-69
2021/04/06 01:40:10;;;;;;;4.23;1.53;;;;;;;-0.44;77.87;97581.55;238772;1196;23089;-69
2021/04/06 01:45:16;;;;;;;3.95;1.50;;;;;;;-0.45;77.47;97587.84;238844;1196;23280;-69
2021/04/06 01:50:20;;;;;;;3.50;1.50;;;;;;;-0.46;77.37;97594.14;238713;1200;26086;-70
2021/04/06 01:55:31;;;;;;;3.67;1.50;;;;;;;-0.49;77.10;97602.53;238685;1197;23135;-69
2021/04/06 02:05:57;;;;;;;5.10;1.90;;;;;;;-0.55;76.78;97581.42;238641;1200;23138;-70
2021/04/06 02:11:01;;;;;;;3.10;1.70;;;;;;;-0.57;77.03;97591.41;238741;1196;23124;-70
2021/04/06 02:16:04;;;;;;;2.80;1.67;;;;;;;-0.59;76.90;97585.61;238574;1196;23128;-69
2021/04/06 02:21:08;;;;;;;7.47;2.13;;;;;;;-0.66;76.82;97590.23;238642;1196;23645;-71
2021/04/06 02:26:15;;;;;;;3.40;2.10;;;;;;;-0.72;77.20;97576.22;238754;1197;23109;-69
2021/04/06 02:31:19;;;;;;;4.90;1.65;;;;;;;-0.75;77.27;97599.59;238588;1197;23111;-70
2021/04/06 02:36:25;;;;;;;4.83;1.53;;;;;;;-0.80;76.99;97599.52;238640;1196;23111;-70
2021/04/06 02:41:30;;;;;;;2.20;1.53;;;;;;;-0.88;77.21;97593.65;238595;1199;23113;-70
2021/04/06 02:46:35;;;;;;;4.80;1.83;;;;;;;-0.90;77.24;97611.48;238834;1197;23135;-70
2021/04/06 02:51:40;;;;;;;3.05;1.85;;;;;;;-0.86;77.34;97625.73;239036;1200;23137;-68
2021/04/06 02:56:42;;;;;;;3.87;2.07;;;;;;;-0.78;77.59;97613.24;238890;1200;23135;-70
2021/04/06 03:01:46;;;;;;;4.65;1.95;;;;;;;-0.75;77.23;97618.01;238761;1196;23121;-69
2021/04/06 03:06:54;;;;;;;4.17;1.87;;;;;;;-0.73;77.02;97619.36;239038;1195;23109;-70
2021/04/06 03:11:58;;;;;;;2.57;1.73;;;;;;;-0.66;77.11;97618.38;238885;1196;23102;-70
2021/04/06 03:17:00;;;;;;;5.10;2.43;;;;;;;-0.70;76.98;97623.31;238770;1196;23108;-70
2021/04/06 03:22:06;;;;;;;6.20;1.85;;;;;;;-0.68;77.19;97610.73;238629;1196;23102;-70
2021/04/06 03:27:09;;;;;;;3.53;1.60;;;;;;;-0.64;77.19;97606.58;238867;1196;23232;-69
2021/04/06 03:32:12;;;;;;;2.35;1.00;;;;;;;-0.68;77.10;97626.52;238721;1200;23163;-70
2021/04/06 03:37:16;;;;;;;2.37;1.47;;;;;;;-0.72;76.82;97617.52;238650;1196;23109;-70
2021/04/06 03:42:27;;;;;;;2.60;1.15;;;;;;;-0.75;76.58;97642.46;238835;1197;23112;-69
2021/04/06 03:47:53;;;;;;;3.17;1.60;;;;;;;-0.73;76.74;97644.84;238925;1196;23105;-69
2021/04/06 03:53:06;;;;;;;2.03;1.07;;;;;;;-0.64;76.64;97642.59;238747;1197;23579;-71
2021/04/06 03:58:17;;;;;;;1.75;1.35;;;;;;;-0.64;76.14;97656.55;238703;1199;27355;-69
2021/04/06 04:03:22;;;;;;;3.70;1.60;;;;;;;-0.65;76.33;97665.47;238712;1196;23108;-70
2021/04/06 04:08:25;;;;;;;3.95;1.60;;;;;;;-0.65;76.42;97654.95;238707;1196;23111;-69
2021/04/06 04:13:28;;;;;;;4.87;2.60;;;;;;;-0.70;76.21;97668.03;238815;1199;23135;-70
2021/04/06 04:18:31;;;;;;;5.73;1.73;;;;;;;-0.69;76.01;97656.48;238818;1197;23109;-70
2021/04/06 04:23:34;;;;;;;3.50;1.70;;;;;;;-0.71;76.07;97659.35;238719;1196;23186;-70
2021/04/06 04:28:37;;;;;;;2.73;2.00;;;;;;;-0.72;75.52;97656.97;238642;1196;23260;-70
2021/04/06 04:33:40;;;;;;;4.60;1.60;;;;;;;-0.74;75.37;97662.47;238758;1196;23561;-69
2021/04/06 04:38:43;;;;;;;3.87;1.97;;;;;;;-0.78;75.77;97652.69;238682;1196;23136;-69
2021/04/06 04:43:46;;;;;;;4.90;1.87;;;;;;;-0.78;75.97;97668.47;238655;1196;23244;-69
2021/04/06 04:48:48;;;;;;;3.00;2.00;;;;;;;-0.79;75.68;97688.69;238568;1196;23115;-71
2021/04/06 04:53:51;;;;;;;4.83;2.33;;;;;;;-0.74;75.51;97695.84;238674;1196;23276;-70
2021/04/06 04:58:54;;;;;;;5.73;2.30;;;;;;;-0.72;75.15;97696.42;238724;1199;23095;-69
2021/04/06 05:03:57;;;;;;;3.75;1.80;;;;;;;-0.72;75.20;97691.16;238666;1200;23247;-71
2021/04/06 05:09:00;;;;;;;4.77;2.33;;;;;;;-0.70;75.34;97703.03;238692;1197;23112;-70
2021/04/06 05:14:04;;;;;;;4.37;2.10;;;;;;;-0.70;75.14;97696.95;238772;1199;23135;-70
2021/04/06 05:19:07;;;;;;;3.15;2.00;;;;;;;-0.68;74.81;97707.27;238718;1199;23131;-70
2021/04/06 05:24:10;;;;;;;5.45;2.30;;;;;;;-0.60;74.77;97707.64;238690;1197;23217;-70
2021/04/06 05:29:13;;;;;;;5.00;2.20;;;;;;;-0.59;74.47;97708.42;238730;1200;27160;-70
2021/04/06 05:34:15;;;;;;;5.23;2.40;;;;;;;-0.58;74.70;97699.50;238566;1200;23212;-69
2021/04/06 05:39:18;;;;;;;5.53;2.00;;;;;;;-0.58;74.43;97716.08;238819;1200;23202;-70
2021/04/06 05:44:22;;;;;;;5.43;3.10;;;;;;;-0.60;74.27;97725.24;238822;1196;23422;-69
2021/04/06 05:49:27;;;;;;;6.60;2.40;;;;;;;-0.44;74.76;97721.80;238585;1196;23112;-70
2021/04/06 05:54:30;;;;;;;4.13;2.47;;;;;;;-0.27;74.05;97720.97;238786;1199;25996;-69
2021/04/06 05:59:33;;;;;;;5.95;3.15;;;;;;;-0.07;74.04;97723.05;238525;1196;23122;-70
2021/04/06 06:04:35;;;;;;;9.20;2.80;;;;;;;0.07;73.40;97724.30;238133;1196;23135;-69
2021/04/06 06:09:38;;;;;;;7.43;3.03;;;;;;;0.18;73.38;97721.77;238193;1196;23172;-70
2021/04/06 06:14:51;;;;;;;8.23;2.77;;;;;;;0.28;73.05;97720.05;238625;1196;23244;-69
2021/04/06 06:19:56;;;;;;;3.30;2.10;;;;;;;0.38;72.73;97716.73;238611;1196;23109;-69
2021/04/06 06:25:02;;;;;;;7.80;3.90;;;;;;;0.47;72.33;97722.34;239673;1196;23349;-69
2021/04/06 06:30:38;;;;;;;5.70;2.50;;;;;;;0.61;72.26;97731.44;239755;1199;23526;-69
2021/04/06 06:35:44;;;;;;;4.80;2.80;;;;;;;0.74;71.43;97724.98;239784;1196;23126;-71
2021/04/06 06:40:50;;;;;;;4.95;2.00;;;;;;;0.88;71.86;97720.08;239648;1200;23573;-71
2021/04/06 06:45:53;;;;;;;5.83;2.57;;;;;;;0.95;71.56;97725.96;239744;1196;23109;-70
2021/04/06 06:50:59;;;;;;;5.60;2.45;;;;;;;1.01;71.68;97724.16;238898;1199;23109;-69
2021/04/06 06:56:10;;;;;;;3.55;2.05;;;;;;;1.28;71.61;97716.17;238350;1196;23359;-69
2021/04/06 07:01:25;;;;;;;3.40;2.10;;;;;;;1.25;69.44;97702.70;240265;1196;23102;-69
2021/04/06 07:06:28;;;;;;;4.47;2.27;;;;;;;1.15;69.96;97716.63;238674;1199;25990;-68
2021/04/06 07:11:32;;;;;;;6.07;2.80;;;;;;;1.34;70.47;97717.00;238252;1196;23109;-69
2021/04/06 07:16:35;;;;;;;5.25;2.35;;;;;;;1.56;69.52;97726.65;238363;1196;27208;-70
2021/04/06 07:21:39;;;;;;;4.33;2.53;;;;;;;1.60;69.16;97725.09;238155;1196;23109;-70
2021/04/06 07:26:42;;;;;;;4.30;2.63;;;;;;;1.65;68.92;97733.02;238959;1196;23117;-68
2021/04/06 07:31:46;;;;;;;6.33;2.70;;;;;;;1.66;68.67;97708.22;238465;1196;23118;-66
2021/04/06 07:36:49;;;;;;;3.95;2.30;;;;;;;1.85;69.22;97712.01;239407;1199;23109;-69
2021/04/06 07:41:52;;;;;;;3.40;2.37;;;;;;;1.82;67.44;97731.02;238469;1196;23276;-69
2021/04/06 07:46:55;;;;;;;4.85;2.10;;;;;;;1.78;67.20;97724.66;238332;1196;23268;-68
2021/04/06 07:52:00;;;;;;;4.07;2.90;;;;;;;1.83;67.79;97731.80;238720;1200;23135;-68
2021/04/06 07:57:42;;;;;;;3.00;2.50;;;;;;;2.04;66.72;97724.76;238272;1173;38153;-69
2021/04/06 08:02:45;;;;;;;4.30;2.40;;;;;;;2.42;68.21;97716.69;238047;1202;23231;-69
2021/04/06 08:07:48;;;;;;;5.50;3.10;;;;;;;2.84;68.71;97718.34;238007;1200;23119;-68
2021/04/06 08:12:51;;;;;;;2.37;2.07;;;;;;;3.17;66.10;97718.89;237996;1199;23125;-69
2021/04/06 08:17:59;;;;;;;4.70;2.55;;;;;;;3.26;66.04;97714.66;237905;1200;23103;-69
2021/04/06 08:23:10;;;;;;;4.45;2.70;;;;;;;3.28;65.77;97711.74;238306;1200;23115;-69
2021/04/06 08:28:29;;;;;;;;;;;;;;;3.33;65.23;97719.66;238195;1204;23145;-69
2021/04/06 08:33:31;;;;;;;5.00;2.80;;;;;;;3.15;63.93;97721.80;237956;1200;23186;-69
2021/04/06 08:38:34;;;;;;;5.57;2.73;;;;;;;3.01;63.58;97715.46;238076;1200;23128;-70
2021/04/06 08:43:47;;;;;;;5.13;3.13;;;;;;;2.90;64.69;97720.73;238315;1199;23116;-70
2021/04/06 08:48:51;;;;;;;9.20;3.30;;;;;;;2.93;65.08;97723.92;238698;1200;23087;-69
2021/04/06 08:53:57;;;;;;;4.80;3.40;;;;;;;3.15;65.15;97716.52;237567;1200;23155;-69
2021/04/06 08:59:31;;;;;;;7.30;2.70;;;;;;;3.28;63.87;97709.09;237616;1200;23144;-69
2021/04/06 09:04:37;;;;;;;3.65;2.30;;;;;;;3.32;63.25;97697.70;238036;1202;23121;-68
2021/04/06 09:09:40;;;;;;;5.00;2.55;;;;;;;3.32;60.56;97715.45;237580;1200;23156;-68
2021/04/06 09:14:44;;;;;;;3.65;2.50;;;;;;;3.29;62.24;97705.37;238465;1200;23154;-69
2021/04/06 09:19:47;;;;;;;3.60;2.50;;;;;;;3.41;63.03;97697.94;237445;1200;23105;-70
2021/04/06 09:24:50;;;;;;;4.15;2.60;;;;;;;3.63;62.07;97696.85;238142;1203;23140;-69
2021/04/06 09:29:52;;;;;;;3.23;2.30;;;;;;;3.72;61.92;97697.86;238483;1199;23130;-68
2021/04/06 09:34:56;;;;;;;2.30;1.80;;;;;;;3.81;60.89;97698.13;238515;1199;23147;-69
2021/04/06 09:39:59;;;;;;;2.30;2.10;;;;;;;3.76;58.69;97702.38;239056;1200;23128;-69
2021/04/06 09:45:03;;;;;;;3.13;2.17;;;;;;;3.86;60.08;97713.98;238225;1199;23127;-69
2021/04/06 09:50:09;;;;;;;2.90;2.10;;;;;;;3.86;60.05;97711.34;238171;1199;23147;-68
2021/04/06 09:55:13;;;;;;;4.90;2.40;;;;;;;3.78;58.51;97712.70;237881;1200;23318;-69
2021/04/06 10:00:28;;;;;;;5.70;2.60;;;;;;;3.57;57.50;97714.61;238974;1200;23226;-69
2021/04/06 10:05:33;;;;;;;4.95;2.30;;;;;;;3.51;57.78;97726.25;238369;1199;23137;-69
2021/04/06 10:10:36;;;;;;;3.00;2.07;;;;;;;3.59;59.26;97721.20;242608;1199;23276;-70
2021/04/06 10:15:40;;;;;;;4.50;3.10;;;;;;;3.81;57.46;97721.97;245350;1199;23787;-70
2021/04/06 10:20:48;;;;;;;3.90;2.70;;;;;;;3.96;54.45;97724.56;237597;1202;26037;-69
2021/04/06 10:25:50;;;;;;;3.70;2.40;;;;;;;4.06;57.16;97713.14;237726;1199;23097;-69
2021/04/06 10:31:02;;;;;;;3.65;2.50;;;;;;;4.17;54.85;97713.86;237538;1202;23137;-69
2021/04/06 10:36:16;;;;;;;2.90;2.40;;;;;;;4.13;54.58;97708.33;238061;1199;26275;-70
2021/04/06 10:41:25;;;;;;;3.10;1.75;;;;;;;4.21;55.88;97699.81;237896;1199;23125;-68
2021/04/06 10:46:27;;;;;;;4.13;1.83;;;;;;;4.49;56.38;97688.78;238631;1199;23159;-68
2021/04/06 10:51:31;;;;;;;4.77;2.10;;;;;;;4.65;54.22;97682.31;237802;1202;26316;-68
2021/04/06 10:56:50;;;;;;;2.50;2.05;;;;;;;4.79;54.51;97685.13;237983;1199;23120;-69
2021/04/06 11:01:53;;;;;;;3.70;2.40;;;;;;;4.54;53.11;97673.63;238200;1199;23118;-69
2021/04/06 11:06:59;;;;;;;4.15;2.30;;;;;;;4.26;53.35;97672.47;238084;1202;23482;-69
2021/04/06 11:12:03;;;;;;;2.80;2.35;;;;;;;4.17;53.43;97668.80;238330;1199;23143;-70
2021/04/06 11:17:07;;;;;;;4.80;2.75;;;;;;;4.09;52.67;97670.18;238204;1202;24919;-70
2021/04/06 11:22:17;;;;;;;3.83;2.37;;;;;;;4.04;53.54;97676.31;238230;1199;23124;-69
2021/04/06 11:27:20;;;;;;;3.08;2.78;;;;;;;3.96;53.32;97660.97;238249;1202;23114;-70
2021/04/06 11:32:22;;;;;;;4.43;2.90;;;;;;;4.17;53.75;97644.95;237991;1202;23114;-69
2021/04/06 11:37:25;;;;;;;3.60;2.15;;;;;;;4.35;53.31;97640.86;238250;1199;23235;-70
2021/04/06 11:42:27;;;;;;;2.80;2.23;;;;;;;4.54;51.92;97638.36;238227;1199;23125;-70
2021/04/06 11:47:31;;;;;;;3.20;2.30;;;;;;;4.80;52.29;97621.17;238048;1203;23173;-71
2021/04/06 11:52:35;;;;;;;3.40;2.40;;;;;;;5.26;51.31;97622.61;239340;1199;27220;-71
2021/04/06 11:57:38;;;;;;;2.73;1.60;;;;;;;5.49;50.23;97623.67;239310;1200;23335;-70
2021/04/06 12:02:41;;;;;;;2.17;1.53;;;;;;;5.83;49.99;97617.45;239704;1200;23227;-70
2021/04/06 12:07:44;;;;;;;1.67;1.30;;;;;;;5.98;48.28;97618.34;239387;1200;24755;-70
2021/04/06 12:12:49;;;;;;;2.25;1.45;;;;;;;6.09;47.20;97614.47;239609;1202;23122;-70
2021/04/06 12:17:52;;;;;;;2.77;1.53;;;;;;;6.09;47.54;97613.69;239315;1200;24728;-71
2021/04/06 12:22:55;;;;;;;2.60;1.70;;;;;;;5.80;46.46;97615.33;239387;1199;23829;-70
2021/04/06 12:27:57;;;;;;;1.97;1.60;;;;;;;5.64;46.20;97600.68;238054;1200;23114;-70
2021/04/06 12:33:01;;;;;;;3.45;1.70;;;;;;;5.29;46.31;97600.80;238209;1200;23137;-69
2021/04/06 12:38:04;;;;;;;2.40;1.80;;;;;;;5.18;47.06;97599.33;238201;1200;23136;-70
2021/04/06 12:43:06;;;;;;;5.10;2.40;;;;;;;5.57;47.18;97590.39;238398;1200;23115;-70
2021/04/06 12:48:09;;;;;;;1.40;1.30;;;;;;;6.01;44.41;97577.89;238102;1202;23169;-70
2021/04/06 12:53:12;;;;;;;2.60;1.33;;;;;;;6.47;43.19;97579.08;238434;1198;23155;-70
2021/04/06 12:58:16;;;;;;;1.67;1.33;;;;;;;6.52;41.28;97581.67;239654;1200;23614;-70
2021/04/06 13:03:19;;;;;;;2.27;1.50;;;;;;;6.27;43.00;97580.20;239319;1200;23133;-71
2021/04/06 13:08:21;;;;;;;2.45;1.60;;;;;;;5.83;43.39;97571.45;239213;1199;23117;-70
2021/04/06 13:13:25;;;;;;;1.60;1.50;;;;;;;5.52;43.80;97573.72;239604;1200;23130;-70
2021/04/06 13:18:29;;;;;;;2.85;1.70;;;;;;;5.33;44.46;97579.79;239407;1201;23150;-70
2021/04/06 13:23:32;;;;;;;1.83;1.67;;;;;;;5.25;45.47;97573.22;238676;1199;23142;-69
2021/04/06 13:28:35;;;;;;;3.40;1.75;;;;;;;5.13;44.92;97570.97;237974;1200;23202;-70
2021/04/06 13:33:39;;;;;;;2.63;1.63;;;;;;;5.15;44.85;97565.38;238010;1200;23131;-70
2021/04/06 13:38:42;;;;;;;2.70;1.90;;;;;;;5.14;44.19;97566.45;239324;1199;23292;-69
2021/04/06 13:43:45;;;;;;;2.15;1.80;;;;;;;5.25;44.17;97557.29;239302;1203;23234;-68
2021/04/06 13:48:48;;;;;;;2.37;1.67;;;;;;;5.51;44.68;97564.95;237959;1199;23286;-69
2021/04/06 13:53:51;;;;;;;2.90;1.80;;;;;;;5.76;44.43;97560.39;238028;1200;23134;-69
2021/04/06 13:58:55;;;;;;;2.95;1.65;;;;;;;5.90;43.26;97563.13;237970;1200;23170;-68
2021/04/06 14:03:57;;;;;;;3.70;2.10;;;;;;;5.74;43.67;97568.66;238808;1200;23149;-68
2021/04/06 14:09:00;;;;;;;5.20;2.00;;;;;;;5.57;43.93;97557.70;237615;1200;23134;-68
2021/04/06 14:14:02;;;;;;;3.20;1.77;;;;;;;5.35;42.76;97564.34;237508;1199;23176;-68
2021/04/06 14:19:05;;;;;;;3.47;2.80;;;;;;;4.85;46.44;97561.16;237472;1202;26220;-68
2021/04/06 14:24:09;;;;;;;3.40;2.80;;;;;;;4.31;49.60;97571.70;238919;1202;23135;-68
2021/04/06 14:29:12;;;;;;;4.65;2.60;;;;;;;3.88;51.60;97577.53;237961;1200;23115;-69
2021/04/06 14:34:15;;;;;;;4.50;2.70;;;;;;;3.58;51.89;97566.04;238192;1200;23282;-70
2021/04/06 14:39:19;;;;;;;4.25;2.20;;;;;;;3.56;52.99;97573.45;237968;1200;23113;-67
2021/04/06 14:44:22;;;;;;;4.00;1.90;;;;;;;3.58;54.55;97563.39;238111;1200;23153;-68
2021/04/06 14:49:25;;;;;;;2.45;2.00;;;;;;;3.75;54.37;97551.66;238230;1199;23143;-68
2021/04/06 14:54:31;;;;;;;1.95;1.60;;;;;;;3.89;53.14;97546.52;238256;1202;23143;-69
2021/04/06 14:59:34;;;;;;;10.30;5.50;;;;;;;4.07;51.29;97534.48;238610;1199;23133;-69
2021/04/06 15:04:38;;;;;;;2.77;1.70;;;;;;;4.23;50.79;97527.23;238540;1199;23282;-69
2021/04/06 15:09:40;;;;;;;2.00;1.30;;;;;;;4.32;49.34;97524.77;238511;1200;23155;-68
2021/04/06 15:14:43;;;;;;;1.80;1.23;;;;;;;4.39;48.68;97531.34;238525;1202;23119;-69
2021/04/06 15:19:55;;;;;;;3.63;2.30;;;;;;;4.51;48.46;97530.97;238475;1199;23124;-70
2021/04/06 15:25:03;;;;;;;2.30;1.87;;;;;;;4.65;48.16;97525.02;238353;1202;24869;-69
2021/04/06 15:30:07;;;;;;;7.05;2.00;;;;;;;4.79;48.25;97515.32;238414;1202;23176;-69
2021/04/06 15:35:13;;;;;;;2.05;1.50;;;;;;;4.82;46.43;97525.36;238775;1202;23114;-69
2021/04/06 15:40:18;;;;;;;3.00;1.50;;;;;;;4.83;46.26;97526.95;238561;1202;23104;-69
2021/04/06 15:45:23;;;;;;;4.63;2.50;;;;;;;4.78;47.10;97532.30;238981;1198;23129;-69
2021/04/06 15:50:32;;;;;;;6.00;2.50;;;;;;;4.69;45.92;97534.78;238520;1200;23137;-69
2021/04/06 15:55:35;;;;;;;5.65;2.45;;;;;;;4.32;47.31;97532.72;238284;1200;23311;-69
2021/04/06 16:00:39;;;;;;;3.00;1.90;;;;;;;4.07;47.14;97542.43;238571;1200;23148;-69
2021/04/06 16:05:44;;;;;;;3.60;1.80;;;;;;;3.87;47.17;97538.84;238488;1200;23260;-69
2021/04/06 16:10:46;;;;;;;2.55;1.80;;;;;;;3.74;47.40;97537.60;238824;1199;23115;-69
2021/04/06 16:15:50;;;;;;;3.45;2.15;;;;;;;3.65;48.02;97535.80;238484;1199;23117;-70
2021/04/06 16:20:52;;;;;;;2.17;1.53;;;;;;;3.55;48.34;97531.35;238606;1200;23125;-69
2021/04/06 16:25:57;;;;;;;4.55;2.00;;;;;;;3.43;48.10;97537.77;238321;1199;23114;-70
2021/04/06 16:30:59;;;;;;;3.40;1.95;;;;;;;3.27;48.35;97536.23;238697;1202;23131;-69
2021/04/06 16:36:05;;;;;;;3.73;2.03;;;;;;;3.15;49.10;97547.14;238347;1200;23114;-70
2021/04/06 16:41:16;;;;;;;4.20;2.40;;;;;;;2.99;49.23;97553.53;238368;1202;24584;-70
2021/04/06 16:46:18;;;;;;;5.20;2.55;;;;;;;2.81;50.05;97555.70;238327;1200;23148;-68
2021/04/06 16:51:21;;;;;;;5.60;2.50;;;;;;;2.70;50.76;97546.17;238631;1202;23151;-69
2021/04/06 16:56:23;;;;;;;4.50;2.77;;;;;;;2.63;51.49;97562.33;238145;1202;23108;-69
2021/04/06 17:01:26;;;;;;;6.70;3.55;;;;;;;2.56;51.29;97567.88;238621;1200;23118;-69
2021/04/06 17:06:28;;;;;;;5.60;3.00;;;;;;;2.48;52.19;97578.20;237984;1200;23134;-70
2021/04/06 17:11:33;;;;;;;7.35;3.00;;;;;;;2.33;54.87;97589.55;238303;1202;23124;-70
2021/04/06 17:16:36;;;;;;;7.70;3.10;;;;;;;2.10;56.71;97604.86;238429;1198;25965;-69
2021/04/06 17:21:38;;;;;;;1.90;1.43;;;;;;;1.81;57.33;97607.16;238553;1200;23133;-69
2021/04/06 17:26:41;;;;;;;1.10;1.00;;;;;;;1.45;58.73;97618.36;238377;1200;23156;-69
2021/04/06 17:31:45;;;;;;;4.40;2.30;;;;;;;1.16;60.23;97621.39;238407;1200;23196;-69
2021/04/06 17:36:47;;;;;;;5.65;2.75;;;;;;;1.02;60.91;97630.78;238452;1200;23196;-69
2021/04/06 17:41:50;;;;;;;1.83;1.10;;;;;;;0.88;61.69;97627.00;238597;1202;25009;-69
2021/04/06 17:46:52;;;;;;;1.73;0.67;;;;;;;0.76;61.29;97612.16;238350;1199;23147;-70
2021/04/06 17:51:56;;;;;;;0.70;0.50;;;;;;;0.64;61.67;97609.72;238675;1202;23161;-69
2021/04/06 17:56:59;;;;;;;0.50;0.43;;;;;;;0.48;62.67;97615.91;238359;1200;23179;-69
2021/04/06 18:02:01;;;;;;;1.90;1.25;;;;;;;0.29;63.13;97618.88;238391;1200;23135;-68
2021/04/06 18:07:07;;;;;;;1.70;1.00;;;;;;;0.10;63.47;97630.81;238563;1200;23125;-69
2021/04/06 18:12:10;;;;;;;2.20;1.20;;;;;;;-0.08;64.96;97624.06;238205;1202;23140;-68
2021/04/06 18:17:14;;;;;;;2.00;1.27;;;;;;;-0.31;65.38;97620.63;238192;1199;23129;-69
2021/04/06 18:22:17;;;;;;;7.80;3.70;;;;;;;-0.47;66.38;97622.30;238100;1200;23279;-71
2021/04/06 18:27:19;;;;;;;5.90;2.70;;;;;;;-0.64;67.57;97622.36;238311;1200;23134;-68
2021/04/06 18:32:22;;;;;;;8.30;4.70;;;;;;;-0.78;68.47;97621.91;238079;1200;23164;-68
2021/04/06 18:37:25;;;;;;;4.90;2.45;;;;;;;-0.94;69.20;97638.52;238330;1200;23118;-69
2021/04/06 18:42:48;;;;;;;10.00;3.97;;;;;;;-1.05;69.18;97648.08;238110;1202;23292;-69
2021/04/06 18:47:51;;;;;;;14.10;6.40;;;;;;;-1.12;69.77;97642.19;238170;1200;23223;-69
2021/04/06 18:52:56;;;;;;;10.40;5.07;;;;;;;-1.22;70.94;97642.83;238480;1199;23138;-69
2021/04/06 18:57:59;;;;;;;13.13;6.30;;;;;;;-1.30;71.12;97644.04;238487;1200;23252;-68
2021/04/06 19:03:02;;;;;;;14.10;7.10;;;;;;;-1.39;71.09;97646.24;238411;1200;23115;-69
2021/04/06 19:08:10;;;;;;;13.33;7.53;;;;;;;-1.45;71.68;97651.67;238264;1202;26023;-69
2021/04/06 19:13:15;;;;;;;19.00;8.70;;;;;;;-1.49;72.06;97647.93;238611;1200;23128;-68
2021/04/06 19:18:21;;;;;;;16.30;7.55;;;;;;;-1.53;72.40;97652.06;238609;1200;23090;-69
2021/04/06 19:23:25;;;;;;;19.37;9.33;;;;;;;-1.59;73.08;97651.97;238562;1202;23123;-68
2021/04/06 19:28:28;;;;;;;22.17;10.70;;;;;;;-1.61;73.22;97648.80;238406;1199;23289;-69
2021/04/06 19:33:31;;;;;;;26.20;11.00;;;;;;;-1.62;73.19;97643.78;238387;1202;27137;-71
2021/04/06 19:38:34;;;;;;;27.10;13.25;;;;;;;-1.65;73.34;97650.30;238418;1202;23123;-70
2021/04/06 19:43:38;;;;;;;30.10;13.90;;;;;;;-1.66;73.48;97645.28;238372;1202;23501;-70
2021/04/06 19:48:40;;;;;;;22.75;10.95;;;;;;;-1.70;73.72;97652.05;238539;1202;23147;-70
2021/04/06 19:53:44;;;;;;;22.20;10.00;;;;;;;-1.76;73.76;97654.56;238327;1200;23112;-68
2021/04/06 19:58:49;;;;;;;25.50;12.60;;;;;;;-1.78;74.21;97651.36;238482;1200;23150;-70
2021/04/06 20:03:51;;;;;;;20.55;12.30;;;;;;;-1.80;73.98;97650.03;238481;1202;23124;-68
2021/04/06 20:08:54;;;;;;;23.37;13.43;;;;;;;-1.79;73.97;97643.73;238628;1202;23171;-69
2021/04/06 20:14:00;;;;;;;32.43;17.77;;;;;;;-1.79;74.17;97649.80;238508;1200;23117;-68
2021/04/06 20:19:09;;;;;;;44.00;21.90;;;;;;;-1.81;74.14;97640.55;238525;1200;23131;-69
2021/04/06 20:24:16;;;;;;;37.53;18.23;;;;;;;-1.79;74.02;97644.55;238059;1200;23134;-68
2021/04/06 20:29:21;;;;;;;33.13;16.27;;;;;;;-1.79;74.23;97627.97;238155;1199;23113;-69
2021/04/06 20:34:23;;;;;;;37.60;19.00;;;;;;;-1.80;74.29;97629.03;238076;1199;23144;-67
2021/04/06 20:39:29;;;;;;;46.20;21.20;;;;;;;-1.90;74.48;97627.80;238215;1199;23137;-67
2021/04/06 20:44:32;;;;;;;60.30;26.50;;;;;;;-1.99;75.02;97636.29;238137;1200;23087;-69
2021/04/06 20:49:35;;;;;;;68.50;30.40;;;;;;;-2.08;74.75;97633.25;238416;1200;23270;-68
2021/04/06 20:54:38;;;;;;;91.67;36.50;;;;;;;-2.12;74.57;97630.28;237976;1200;23134;-69
2021/04/06 20:59:44;;;;;;;88.80;37.10;;;;;;;-2.14;74.90;97636.80;238398;1202;26015;-68
2021/04/06 21:04:46;;;;;;;82.63;37.93;;;;;;;-2.18;74.79;97633.04;238347;1200;23141;-69
2021/04/06 21:09:49;;;;;;;88.25;38.40;;;;;;;-2.18;75.02;97625.98;238809;1200;23148;-69
2021/04/06 21:14:52;;;;;;;78.80;32.45;;;;;;;-2.24;75.35;97632.97;238358;1200;23125;-68
2021/04/06 21:19:55;;;;;;;74.63;32.80;;;;;;;-2.29;75.51;97640.73;238380;1200;23125;-69
2021/04/06 21:24:59;;;;;;;89.03;35.43;;;;;;;-2.33;75.95;97636.19;238292;1199;23138;-69
2021/04/06 21:30:06;;;;;;;79.75;35.45;;;;;;;-2.38;75.91;97636.86;238314;1202;23588;-68
2021/04/06 21:35:11;;;;;;;77.60;32.25;;;;;;;-2.41;76.35;97638.15;238423;1200;24765;-70
2021/04/06 21:40:18;;;;;;;70.00;31.20;;;;;;;-2.42;76.74;97630.48;238337;1200;23125;-68
2021/04/06 21:45:22;;;;;;;68.10;28.35;;;;;;;-2.42;76.69;97635.73;238370;1199;23173;-69
2021/04/06 21:50:26;;;;;;;71.33;30.67;;;;;;;-2.43;77.69;97628.91;238600;1199;24799;-68
2021/04/06 21:55:29;;;;;;;70.70;31.95;;;;;;;-2.45;77.77;97633.58;238334;1200;23229;-70
2021/04/06 22:00:32;;;;;;;72.00;30.55;;;;;;;-2.46;77.72;97619.68;238415;1200;23233;-68
2021/04/06 22:05:40;;;;;;;74.15;31.70;;;;;;;-2.46;77.58;97624.14;238456;1200;23128;-69
2021/04/06 22:10:45;;;;;;;66.35;27.60;;;;;;;-2.44;77.77;97614.20;238267;1200;26233;-68
2021/04/06 22:15:48;;;;;;;72.60;29.40;;;;;;;-2.39;78.14;97614.30;238456;1200;23138;-69
2021/04/06 22:20:50;;;;;;;59.50;25.00;;;;;;;-2.29;78.20;97611.08;238186;1200;23121;-68
2021/04/06 22:25:53;;;;;;;58.90;27.20;;;;;;;-2.21;78.24;97613.34;238377;1202;23125;-69
2021/04/06 22:30:57;;;;;;;57.30;25.70;;;;;;;-2.14;78.19;97602.69;238430;1200;23128;-67
2021/04/06 22:36:01;;;;;;;55.40;24.65;;;;;;;-2.13;78.04;97605.07;238563;1202;26147;-69
2021/04/06 22:41:05;;;;;;;52.73;24.90;;;;;;;-2.21;77.97;97605.47;238540;1198;23152;-69
2021/04/06 22:46:07;;;;;;;55.25;24.25;;;;;;;-2.28;77.81;97604.78;238173;1200;23193;-69
2021/04/06 22:51:11;;;;;;;52.75;23.55;;;;;;;-2.37;77.82;97596.49;238392;1199;23128;-68
2021/04/06 22:56:14;;;;;;;53.30;25.70;;;;;;;-2.46;77.68;97601.32;238185;1200;23155;-68
2021/04/06 23:01:20;;;;;;;64.70;27.50;;;;;;;-2.50;78.20;97591.53;238468;1200;23121;-68
2021/04/06 23:06:23;;;;;;;66.00;27.90;;;;;;;-2.58;78.17;97593.47;238484;1200;23148;-68
2021/04/06 23:11:26;;;;;;;63.30;29.07;;;;;;;-2.62;78.31;97587.09;238531;1202;23140;-68
2021/04/06 23:16:29;;;;;;;56.70;24.15;;;;;;;-2.63;78.22;97588.14;238402;1199;23103;-68
2021/04/06 23:21:32;;;;;;;50.70;24.30;;;;;;;-2.63;78.68;97588.14;238034;1199;23107;-68
2021/04/06 23:26:35;;;;;;;41.00;20.30;;;;;;;-2.60;79.00;97594.75;238453;1200;23295;-69
2021/04/06 23:31:37;;;;;;;42.35;18.95;;;;;;;-2.60;78.90;97587.67;238438;1200;23204;-68
2021/04/06 23:36:40;;;;;;;37.73;17.57;;;;;;;-2.58;79.39;97588.22;238315;1200;23253;-68
2021/04/06 23:41:42;;;;;;;38.40;15.80;;;;;;;-2.55;79.04;97589.59;238245;1200;23305;-68
2021/04/06 23:46:45;;;;;;;35.90;16.03;;;;;;;-2.51;78.67;97588.09;238253;1202;23114;-68